createdAt,value
2017-09-22T00:00:18.027Z,51.30
2017-09-22T00:02:45.578Z,51.30
2017-09-22T00:05:13.090Z,51.40
2017-09-22T00:07:40.695Z,51.30
2017-09-22T00:10:08.206Z,51.30
2017-09-22T00:12:35.803Z,51.30
2017-09-22T00:15:03.314Z,51.30
2017-09-22T00:17:30.804Z,51.30
2017-09-22T00:19:59.186Z,51.30
2017-09-22T00:22:26.763Z,51.90
2017-09-22T00:24:54.303Z,51.30
2017-09-22T00:27:21.786Z,51.20
2017-09-22T00:29:49.280Z,51.10
2017-09-22T00:32:17.543Z,51.20
2017-09-22T00:34:45.032Z,51.20
2017-09-22T00:37:13.287Z,51.20
2017-09-22T00:39:41.543Z,51.80
2017-09-22T00:42:09.064Z,51.30
2017-09-22T00:44:36.611Z,51.30
2017-09-22T00:47:04.127Z,51.20
2017-09-22T00:49:32.387Z,51.30
2017-09-22T00:52:00.835Z,51.30
2017-09-22T00:54:28.327Z,51.20
2017-09-22T00:56:56.590Z,51.20
2017-09-22T00:59:24.083Z,51.20
2017-09-22T01:01:51.579Z,51.20
2017-09-22T01:04:19.299Z,51.20
2017-09-22T01:06:46.971Z,51.10
2017-09-22T01:09:14.491Z,51.10
2017-09-22T01:11:42.752Z,51.10
2017-09-22T01:14:11.088Z,51.30
2017-09-22T01:16:38.814Z,51.20
2017-09-22T01:19:06.475Z,51.20
2017-09-22T01:21:34.135Z,51.20
2017-09-22T01:24:01.632Z,51.20
2017-09-22T01:26:29.122Z,51.20
2017-09-22T01:28:57.744Z,51.20
2017-09-22T01:31:25.383Z,51.20
2017-09-22T01:33:52.888Z,51.20
2017-09-22T01:36:20.388Z,51.20
2017-09-22T01:38:48.150Z,51.80
2017-09-22T01:41:15.663Z,51.10
2017-09-22T01:43:43.263Z,51.10
2017-09-22T01:46:10.932Z,51.10
2017-09-22T01:48:38.430Z,51.10
2017-09-22T01:51:05.946Z,51.10
2017-09-22T01:53:33.442Z,51.10
2017-09-22T01:56:00.963Z,51.10
2017-09-22T01:58:28.455Z,51.10
2017-09-22T02:00:55.947Z,51.10
2017-09-22T02:03:23.512Z,51.10
2017-09-22T02:05:51.006Z,51.10
2017-09-22T02:08:18.498Z,51.70
2017-09-22T02:10:46.760Z,51.10
2017-09-22T02:13:15.019Z,51.10
2017-09-22T02:15:42.619Z,51.10
2017-09-22T02:18:10.131Z,51.00
2017-09-22T02:20:37.623Z,51.00
2017-09-22T02:23:05.902Z,51.00
2017-09-22T02:25:33.459Z,50.90
2017-09-22T02:28:01.118Z,50.90
2017-09-22T02:30:28.621Z,51.00
2017-09-22T02:32:56.144Z,50.90
2017-09-22T02:35:23.688Z,50.90
2017-09-22T02:37:51.344Z,50.90
2017-09-22T02:40:18.835Z,50.80
2017-09-22T02:42:46.332Z,50.80
2017-09-22T02:45:14.731Z,51.00
2017-09-22T02:47:42.225Z,51.00
2017-09-22T02:50:09.718Z,51.00
2017-09-22T02:52:37.974Z,51.00
2017-09-22T02:55:05.478Z,51.00
2017-09-22T02:58:10.935Z,51.00
2017-09-22T03:00:38.506Z,51.00
2017-09-22T03:03:05.999Z,51.00
2017-09-22T03:05:34.263Z,51.00
2017-09-22T03:08:02.671Z,51.00
2017-09-22T03:10:30.331Z,51.00
2017-09-22T03:12:57.987Z,51.00
2017-09-22T03:15:25.644Z,50.90
2017-09-22T03:17:53.341Z,51.00
2017-09-22T03:20:20.866Z,50.90
2017-09-22T03:22:48.414Z,51.00
2017-09-22T03:25:16.076Z,51.00
2017-09-22T03:27:43.683Z,51.00
2017-09-22T03:30:11.227Z,50.90
2017-09-22T03:32:38.724Z,50.80
2017-09-22T03:35:07.119Z,51.00
2017-09-22T03:37:34.614Z,50.90
2017-09-22T03:40:02.127Z,50.90
2017-09-22T03:42:29.675Z,51.00
2017-09-22T03:44:57.187Z,50.90
2017-09-22T03:47:24.679Z,51.00
2017-09-22T03:49:52.955Z,50.90
2017-09-22T03:52:21.347Z,50.90
2017-09-22T03:54:49.003Z,50.90
2017-09-22T03:57:16.863Z,50.90
2017-09-22T03:59:44.374Z,50.90
2017-09-22T04:02:12.795Z,51.50
2017-09-22T04:04:40.288Z,51.00
2017-09-22T04:07:07.788Z,51.00
2017-09-22T04:09:36.184Z,51.00
2017-09-22T04:12:03.683Z,51.00
2017-09-22T04:14:31.175Z,50.90
2017-09-22T04:16:59.434Z,51.00
2017-09-22T04:19:27.690Z,51.20
2017-09-22T04:21:55.184Z,51.10
2017-09-22T04:24:22.763Z,51.00
2017-09-22T04:26:50.268Z,51.10
2017-09-22T04:29:17.768Z,51.10
2017-09-22T04:31:45.331Z,51.10
2017-09-22T04:34:12.818Z,51.10
2017-09-22T04:36:40.422Z,51.10
2017-09-22T04:39:07.916Z,51.10
2017-09-22T04:41:35.411Z,51.10
2017-09-22T04:44:03.671Z,51.00
2017-09-22T04:46:31.935Z,51.10
2017-09-22T04:48:59.430Z,51.10
2017-09-22T04:51:27.008Z,51.10
2017-09-22T04:53:54.507Z,51.10
2017-09-22T04:56:21.998Z,51.00
2017-09-22T04:58:49.498Z,51.00
2017-09-22T05:01:16.991Z,51.00
2017-09-22T05:03:44.600Z,51.60
2017-09-22T05:06:12.118Z,51.50
2017-09-22T05:08:39.607Z,51.00
2017-09-22T05:11:07.103Z,51.00
2017-09-22T05:13:35.364Z,51.20
2017-09-22T05:16:03.779Z,51.50
2017-09-22T05:18:31.284Z,51.00
2017-09-22T05:20:58.794Z,51.00
2017-09-22T05:23:26.363Z,51.00
2017-09-22T05:25:54.003Z,51.60
2017-09-22T05:28:21.663Z,51.00
2017-09-22T05:30:49.175Z,51.00
2017-09-22T05:33:16.774Z,51.00
2017-09-22T05:35:44.291Z,51.00
2017-09-22T05:38:11.782Z,50.90
2017-09-22T05:40:39.548Z,51.00
2017-09-22T05:43:07.051Z,51.00
2017-09-22T05:45:36.359Z,50.90
2017-09-22T05:48:04.627Z,51.30
2017-09-22T05:50:32.144Z,51.00
2017-09-22T05:52:59.635Z,51.00
2017-09-22T05:55:27.183Z,51.00
2017-09-22T05:57:54.791Z,51.00
2017-09-22T06:00:22.319Z,51.00
2017-09-22T06:02:50.724Z,50.90
2017-09-22T06:05:18.234Z,50.90
2017-09-22T06:07:45.843Z,51.00
2017-09-22T06:10:13.350Z,51.10
2017-09-22T06:12:40.859Z,51.10
2017-09-22T06:15:08.351Z,51.10
2017-09-22T06:17:35.947Z,50.90
2017-09-22T06:20:04.203Z,51.00
2017-09-22T06:22:32.606Z,51.80
2017-09-22T06:25:00.267Z,51.10
2017-09-22T06:27:27.762Z,51.00
2017-09-22T06:29:55.263Z,51.00
2017-09-22T06:32:23.522Z,51.10
2017-09-22T06:34:51.847Z,51.70
2017-09-22T06:37:19.396Z,51.10
2017-09-22T06:39:46.896Z,51.10
2017-09-22T06:42:15.164Z,51.10
2017-09-22T06:44:42.664Z,51.10
2017-09-22T06:47:10.422Z,51.20
2017-09-22T06:49:37.918Z,51.20
2017-09-22T06:52:05.419Z,51.30
2017-09-22T06:54:32.915Z,51.20
2017-09-22T06:57:00.402Z,51.20
2017-09-22T06:59:27.894Z,51.20
2017-09-22T07:01:55.395Z,51.30
2017-09-22T07:04:22.902Z,51.20
2017-09-22T07:06:50.396Z,51.20
2017-09-22T07:09:17.890Z,51.20
2017-09-22T07:11:46.159Z,51.20
2017-09-22T07:14:14.419Z,51.30
2017-09-22T07:16:41.916Z,51.20
2017-09-22T07:19:09.675Z,51.30
2017-09-22T07:21:37.335Z,51.30
2017-09-22T07:24:04.823Z,51.40
2017-09-22T07:26:32.319Z,51.40
2017-09-22T07:29:00.719Z,51.40
2017-09-22T07:31:28.223Z,51.40
2017-09-22T07:33:55.714Z,51.40
2017-09-22T07:36:23.230Z,51.40
2017-09-22T07:38:50.722Z,51.40
2017-09-22T07:41:18.236Z,51.40
2017-09-22T07:43:45.730Z,51.40
2017-09-22T07:46:14.011Z,51.40
2017-09-22T07:48:42.299Z,51.40
2017-09-22T07:51:09.811Z,51.40
2017-09-22T07:53:37.515Z,51.30
2017-09-22T07:56:05.027Z,51.30
2017-09-22T07:58:33.285Z,51.20
2017-09-22T08:01:00.899Z,51.20
2017-09-22T08:03:28.550Z,51.30
2017-09-22T08:05:56.228Z,51.30
2017-09-22T08:08:23.728Z,51.30
2017-09-22T08:10:51.291Z,51.30
2017-09-22T08:13:18.796Z,51.30
2017-09-22T08:15:46.286Z,51.30
2017-09-22T08:18:13.787Z,51.30
2017-09-22T08:20:41.293Z,51.40
2017-09-22T08:23:08.823Z,51.30
2017-09-22T08:25:36.454Z,51.30
2017-09-22T08:28:03.951Z,51.30
2017-09-22T08:30:31.448Z,51.30
2017-09-22T08:32:59.707Z,51.30
2017-09-22T08:35:28.063Z,51.40
2017-09-22T08:37:56.543Z,51.40
2017-09-22T08:40:24.076Z,51.30
2017-09-22T08:42:51.567Z,51.30
2017-09-22T08:45:19.975Z,52.00
2017-09-22T08:47:47.476Z,51.30
2017-09-22T08:50:15.091Z,51.30
2017-09-22T08:52:42.583Z,51.40
2017-09-22T08:55:10.079Z,51.40
2017-09-22T08:57:38.348Z,51.40
2017-09-22T09:00:06.759Z,51.40
2017-09-22T09:02:34.253Z,51.40
2017-09-22T09:05:01.742Z,51.30
2017-09-22T09:07:30.151Z,51.40
2017-09-22T09:09:57.803Z,51.30
2017-09-22T09:12:25.303Z,51.40
2017-09-22T09:14:52.904Z,51.40
2017-09-22T09:17:20.402Z,51.40
2017-09-22T09:19:47.891Z,51.90
2017-09-22T09:22:16.159Z,51.40
2017-09-22T09:24:44.426Z,51.90
2017-09-22T09:27:12.700Z,51.40
2017-09-22T09:29:40.959Z,51.50
2017-09-22T09:32:08.561Z,51.40
2017-09-22T09:34:36.050Z,51.40
2017-09-22T09:37:03.552Z,51.30
2017-09-22T09:39:31.819Z,51.50
2017-09-22T09:42:00.219Z,51.50
2017-09-22T09:44:27.893Z,51.40
2017-09-22T09:46:55.539Z,51.40
2017-09-22T09:49:23.038Z,51.40
2017-09-22T09:51:50.646Z,51.40
2017-09-22T09:54:18.154Z,51.40
2017-09-22T09:56:45.674Z,51.40
2017-09-22T09:59:13.231Z,51.40
2017-09-22T10:01:40.751Z,51.30
2017-09-22T10:04:09.170Z,51.40
2017-09-22T10:06:36.661Z,51.30
2017-09-22T10:09:04.163Z,51.40
2017-09-22T10:11:31.727Z,51.40
2017-09-22T10:13:59.219Z,51.40
2017-09-22T10:16:26.719Z,51.40
2017-09-22T10:18:54.296Z,51.40
2017-09-22T10:21:21.935Z,51.50
2017-09-22T10:23:49.426Z,51.40
2017-09-22T10:26:16.924Z,51.40
2017-09-22T10:28:45.328Z,51.50
2017-09-22T10:31:12.823Z,51.40
2017-09-22T10:33:40.315Z,51.50
2017-09-22T10:36:08.719Z,51.50
2017-09-22T10:38:36.363Z,51.40
2017-09-22T10:41:03.863Z,51.50
2017-09-22T10:43:31.367Z,51.40
2017-09-22T10:45:58.931Z,51.40
2017-09-22T10:48:26.606Z,51.40
2017-09-22T10:50:54.104Z,51.40
2017-09-22T10:53:21.700Z,51.50
2017-09-22T10:55:49.203Z,51.50
2017-09-22T10:58:16.820Z,51.40
2017-09-22T11:00:44.310Z,51.40
2017-09-22T11:03:11.808Z,51.40
2017-09-22T11:05:40.071Z,51.50
2017-09-22T11:08:08.328Z,51.80
2017-09-22T11:10:35.827Z,51.40
2017-09-22T11:13:03.400Z,51.50
2017-09-22T11:15:31.041Z,51.40
2017-09-22T11:17:58.538Z,52.00
2017-09-22T11:20:26.034Z,51.50
2017-09-22T11:22:54.294Z,51.50
2017-09-22T11:25:22.646Z,51.60
2017-09-22T11:27:50.167Z,51.50
2017-09-22T11:30:17.658Z,51.50
2017-09-22T11:32:45.155Z,51.50
2017-09-22T11:35:13.031Z,51.40
2017-09-22T11:37:40.595Z,51.50
2017-09-22T11:40:08.096Z,51.50
2017-09-22T11:42:35.607Z,51.50
2017-09-22T11:45:03.180Z,51.50
2017-09-22T11:47:30.679Z,51.50
2017-09-22T11:49:59.079Z,51.50
2017-09-22T11:52:26.585Z,51.50
2017-09-22T11:54:54.191Z,51.50
2017-09-22T11:57:21.795Z,51.50
2017-09-22T11:59:49.512Z,51.50
2017-09-22T12:02:17.020Z,51.50
2017-09-22T12:04:44.515Z,51.60
2017-09-22T12:07:12.100Z,51.50
2017-09-22T12:09:39.608Z,51.50
2017-09-22T12:12:07.875Z,51.50
2017-09-22T12:14:36.279Z,51.50
2017-09-22T12:17:03.878Z,51.40
2017-09-22T12:19:31.591Z,51.40
2017-09-22T12:21:59.083Z,51.50
2017-09-22T12:24:26.579Z,51.60
2017-09-22T12:26:54.838Z,51.60
2017-09-22T12:29:22.333Z,51.50
2017-09-22T12:31:49.835Z,51.50
2017-09-22T12:34:17.358Z,51.60
2017-09-22T12:36:45.022Z,51.60
2017-09-22T12:39:12.514Z,51.60
2017-09-22T12:41:40.015Z,51.60
2017-09-22T12:44:07.795Z,51.60
2017-09-22T12:46:35.287Z,51.60
2017-09-22T12:49:02.792Z,51.60
2017-09-22T12:51:30.371Z,51.60
2017-09-22T12:53:57.867Z,51.60
2017-09-22T12:56:26.151Z,51.60
2017-09-22T12:58:54.411Z,51.60
2017-09-22T13:01:22.702Z,51.60
2017-09-22T13:03:50.199Z,51.60
2017-09-22T13:06:17.740Z,51.60
2017-09-22T13:08:45.230Z,51.60
2017-09-22T13:11:12.748Z,51.60
2017-09-22T13:13:40.260Z,51.60
2017-09-22T13:16:07.947Z,51.70
2017-09-22T13:18:35.599Z,51.60
2017-09-22T13:21:03.268Z,51.60
2017-09-22T13:23:30.973Z,51.60
2017-09-22T13:25:58.467Z,51.60
2017-09-22T13:28:26.732Z,51.60
2017-09-22T13:30:54.996Z,51.60
2017-09-22T13:33:23.267Z,51.60
2017-09-22T13:35:51.527Z,51.90
2017-09-22T13:38:19.048Z,51.60
2017-09-22T13:40:46.597Z,51.70
2017-09-22T13:43:14.092Z,51.60
2017-09-22T13:45:41.587Z,51.60
2017-09-22T13:48:09.159Z,51.70
2017-09-22T13:50:36.651Z,51.70
2017-09-22T13:53:04.258Z,51.60
2017-09-22T13:55:31.753Z,51.60
2017-09-22T13:57:59.250Z,51.60
2017-09-22T14:00:27.523Z,51.70
2017-09-22T14:02:55.915Z,51.60
2017-09-22T14:05:23.416Z,51.60
2017-09-22T14:07:50.907Z,51.60
2017-09-22T14:10:19.164Z,51.70
2017-09-22T14:12:47.571Z,52.30
2017-09-22T14:15:15.071Z,51.60
2017-09-22T14:17:42.683Z,51.60
2017-09-22T14:20:10.178Z,51.60
2017-09-22T14:22:37.699Z,51.60
2017-09-22T14:25:05.191Z,51.60
2017-09-22T14:27:32.915Z,51.70
2017-09-22T14:30:00.583Z,51.70
2017-09-22T14:32:28.231Z,51.70
2017-09-22T14:34:55.892Z,51.70
2017-09-22T14:37:23.390Z,51.60
2017-09-22T14:39:50.999Z,51.60
2017-09-22T14:42:18.707Z,51.70
2017-09-22T14:44:46.198Z,51.70
2017-09-22T14:47:14.467Z,51.60
2017-09-22T14:49:42.731Z,51.60
2017-09-22T14:52:10.987Z,52.00
2017-09-22T14:54:38.496Z,51.70
2017-09-22T14:57:06.055Z,51.70
2017-09-22T14:59:33.703Z,51.60
2017-09-22T15:02:01.355Z,51.70
2017-09-22T15:04:28.853Z,51.70
2017-09-22T15:06:56.355Z,51.70
2017-09-22T15:09:23.939Z,51.70
2017-09-22T15:11:51.440Z,51.70
2017-09-22T15:14:18.939Z,51.70
2017-09-22T15:16:46.444Z,51.80
2017-09-22T15:19:14.758Z,51.80
2017-09-22T15:21:42.420Z,51.80
2017-09-22T15:24:10.111Z,51.80
2017-09-22T15:26:37.611Z,51.80
2017-09-22T15:29:05.871Z,52.20
2017-09-22T15:31:34.132Z,51.70
2017-09-22T15:34:01.630Z,51.70
2017-09-22T15:36:29.212Z,51.70
2017-09-22T15:38:56.850Z,51.70
2017-09-22T15:41:24.510Z,51.70
2017-09-22T15:43:52.007Z,51.60
2017-09-22T15:46:19.513Z,51.60
2017-09-22T15:48:47.043Z,51.60
2017-09-22T15:51:14.538Z,51.70
2017-09-22T15:53:42.039Z,51.60
2017-09-22T15:56:09.551Z,51.70
2017-09-22T15:58:37.123Z,51.70
2017-09-22T16:01:04.603Z,51.70
2017-09-22T16:03:32.095Z,51.70
2017-09-22T16:06:00.360Z,51.80
2017-09-22T16:08:28.750Z,51.80
2017-09-22T16:10:56.244Z,51.80
2017-09-22T16:13:23.748Z,51.80
2017-09-22T16:15:52.023Z,52.30
2017-09-22T16:18:20.288Z,51.80
2017-09-22T16:20:48.686Z,51.70
2017-09-22T16:23:16.188Z,51.70
2017-09-22T16:25:43.682Z,51.70
2017-09-22T16:28:12.996Z,51.80
2017-09-22T16:30:40.490Z,51.70
2017-09-22T16:33:08.024Z,51.70
2017-09-22T16:35:35.523Z,51.70
2017-09-22T16:38:03.784Z,51.80
2017-09-22T16:40:31.387Z,51.70
2017-09-22T16:42:58.879Z,51.80
2017-09-22T16:45:26.371Z,51.80
2017-09-22T16:47:54.631Z,51.80
2017-09-22T16:50:23.053Z,51.80
2017-09-22T16:52:50.547Z,51.70
2017-09-22T16:55:18.040Z,51.80
2017-09-22T16:57:45.539Z,51.70
2017-09-22T17:00:13.080Z,51.70
2017-09-22T17:02:40.575Z,51.70
2017-09-22T17:05:08.071Z,51.60
2017-09-22T17:07:35.644Z,51.60
2017-09-22T17:10:03.144Z,51.70
2017-09-22T17:12:30.643Z,51.70
2017-09-22T17:14:58.179Z,51.80
2017-09-22T17:17:25.676Z,51.80
2017-09-22T17:19:53.302Z,51.70
2017-09-22T17:22:20.972Z,51.80
2017-09-22T17:24:48.479Z,51.70
2017-09-22T17:27:15.972Z,51.80
2017-09-22T17:29:43.474Z,51.70
2017-09-22T17:32:10.967Z,51.60
2017-09-22T17:34:38.462Z,51.70
2017-09-22T17:37:05.956Z,51.80
2017-09-22T17:39:33.463Z,52.30
2017-09-22T17:42:01.207Z,51.80
2017-09-22T17:44:28.711Z,52.30
2017-09-22T17:46:56.318Z,51.80
2017-09-22T17:49:23.979Z,51.80
2017-09-22T17:51:51.476Z,51.70
2017-09-22T17:54:18.970Z,51.70
2017-09-22T17:56:47.233Z,51.80
2017-09-22T17:59:16.469Z,51.80
2017-09-22T18:01:43.962Z,51.70
2017-09-22T18:04:11.459Z,51.80
2017-09-22T18:06:39.043Z,51.80
2017-09-22T18:09:06.535Z,51.80
2017-09-22T18:11:34.027Z,51.80
2017-09-22T18:14:01.811Z,51.90
2017-09-22T18:16:29.306Z,51.90
2017-09-22T18:18:56.820Z,51.90
2017-09-22T18:21:24.384Z,51.80
2017-09-22T18:23:51.907Z,51.90
2017-09-22T18:26:20.170Z,51.80
2017-09-22T18:28:48.443Z,51.80
2017-09-22T18:31:16.715Z,51.80
2017-09-22T18:33:44.987Z,51.70
2017-09-22T18:36:13.259Z,51.70
2017-09-22T18:38:41.659Z,51.80
2017-09-22T18:41:09.159Z,51.80
2017-09-22T18:43:36.660Z,51.80
2017-09-22T18:46:04.239Z,51.80
2017-09-22T18:48:31.737Z,51.80
2017-09-22T18:50:59.243Z,51.80
2017-09-22T18:53:26.823Z,51.70
2017-09-22T18:55:54.356Z,51.70
2017-09-22T18:58:21.899Z,51.60
2017-09-22T19:00:49.411Z,51.70
2017-09-22T19:03:16.925Z,51.70
2017-09-22T19:05:44.709Z,51.70
2017-09-22T19:08:12.208Z,51.70
2017-09-22T19:10:40.492Z,51.70
2017-09-22T19:13:08.072Z,51.70
2017-09-22T19:15:35.714Z,51.80
2017-09-22T19:18:03.244Z,51.80
2017-09-22T19:20:30.782Z,51.80
2017-09-22T19:22:58.278Z,51.70
2017-09-22T19:25:25.946Z,51.70
2017-09-22T19:27:53.463Z,51.80
2017-09-22T19:30:21.075Z,51.80
2017-09-22T19:32:48.706Z,51.70
2017-09-22T19:35:16.207Z,51.70
2017-09-22T19:37:43.765Z,51.70
2017-09-22T19:40:11.299Z,51.70
2017-09-22T19:42:38.931Z,51.70
2017-09-22T19:45:06.590Z,51.70
2017-09-22T19:47:34.107Z,51.70
2017-09-22T19:50:01.650Z,51.70
2017-09-22T19:52:29.401Z,51.70
2017-09-22T19:54:56.904Z,51.70
2017-09-22T19:57:25.188Z,51.70
2017-09-22T19:59:52.701Z,51.70
2017-09-22T20:02:20.244Z,51.70
2017-09-22T20:04:47.739Z,51.60
2017-09-22T20:07:16.139Z,51.70
2017-09-22T20:09:43.642Z,51.70
2017-09-22T20:12:11.251Z,51.70
2017-09-22T20:14:38.927Z,51.80
2017-09-22T20:17:06.444Z,51.70
2017-09-22T20:19:34.707Z,51.70
2017-09-22T20:22:03.028Z,51.70
2017-09-22T20:24:30.568Z,51.60
2017-09-22T20:26:58.079Z,51.70
2017-09-22T20:29:25.574Z,51.70
2017-09-22T20:31:53.133Z,51.70
2017-09-22T20:34:20.638Z,51.70
2017-09-22T20:36:48.156Z,51.70
2017-09-22T20:39:15.713Z,51.60
2017-09-22T20:41:43.351Z,51.70
2017-09-22T20:44:11.049Z,51.60
2017-09-22T20:46:38.555Z,51.70
2017-09-22T20:49:06.947Z,51.70
2017-09-22T20:51:34.459Z,51.60
2017-09-22T20:54:01.955Z,51.70
2017-09-22T20:56:29.542Z,51.60
2017-09-22T20:58:57.168Z,51.70
2017-09-22T21:01:24.687Z,51.60
2017-09-22T21:03:52.956Z,51.60
2017-09-22T21:06:20.483Z,51.50
2017-09-22T21:08:48.022Z,51.70
2017-09-22T21:11:15.534Z,51.70
2017-09-22T21:13:43.791Z,51.70
2017-09-22T21:16:11.406Z,51.50
2017-09-22T21:18:39.046Z,51.50
2017-09-22T21:21:06.567Z,51.60
2017-09-22T21:23:34.059Z,51.60
2017-09-22T21:26:01.632Z,51.60
2017-09-22T21:28:29.126Z,51.60
2017-09-22T21:30:56.627Z,51.60
2017-09-22T21:33:24.135Z,51.60
2017-09-22T21:35:51.838Z,51.70
2017-09-22T21:38:19.499Z,51.70
2017-09-22T21:40:47.003Z,51.70
2017-09-22T21:43:14.520Z,51.70
2017-09-22T21:45:42.067Z,51.60
2017-09-22T21:48:09.723Z,51.60
2017-09-22T21:50:37.223Z,51.50
2017-09-22T21:53:04.732Z,51.60
2017-09-22T21:55:32.315Z,51.60
2017-09-22T21:57:59.828Z,51.60
2017-09-22T22:00:28.099Z,51.60
2017-09-22T22:03:02.112Z,51.60
2017-09-22T22:05:35.180Z,51.60
2017-09-22T22:08:02.881Z,51.60
2017-09-22T22:10:30.379Z,51.60
2017-09-22T22:12:57.978Z,51.50
2017-09-22T22:15:25.547Z,51.60
2017-09-22T22:17:53.111Z,51.60
2017-09-22T22:20:20.751Z,51.50
2017-09-22T22:22:48.263Z,51.60
2017-09-22T22:25:15.862Z,51.60
2017-09-22T22:27:43.527Z,51.60
2017-09-22T22:30:11.179Z,51.50
2017-09-22T22:32:38.691Z,51.60
2017-09-22T22:35:06.290Z,51.50
2017-09-22T22:37:34.056Z,51.40
2017-09-22T22:40:01.659Z,51.50
2017-09-22T22:42:29.170Z,51.40
2017-09-22T22:44:56.672Z,51.40
2017-09-22T22:47:24.188Z,51.50
2017-09-22T22:49:51.834Z,51.40
2017-09-22T22:52:19.351Z,51.50
2017-09-22T22:54:46.848Z,51.50
2017-09-22T22:57:14.444Z,51.40
2017-09-22T22:59:41.942Z,51.50
2017-09-22T23:02:10.224Z,51.50
2017-09-22T23:04:38.482Z,51.40
2017-09-22T23:07:06.879Z,51.50
2017-09-22T23:09:34.374Z,51.40
2017-09-22T23:12:01.892Z,51.50
2017-09-22T23:14:29.491Z,52.00
2017-09-22T23:16:57.108Z,51.40
2017-09-22T23:19:24.707Z,51.50
2017-09-22T23:21:52.319Z,51.40
2017-09-22T23:24:19.874Z,51.30
2017-09-22T23:26:47.535Z,51.30
2017-09-22T23:29:15.026Z,51.30
2017-09-22T23:31:42.543Z,51.20
2017-09-22T23:34:10.302Z,51.20
2017-09-22T23:36:37.794Z,51.30
2017-09-22T23:39:05.304Z,51.20
2017-09-22T23:41:32.876Z,51.20
2017-09-22T23:44:00.496Z,51.20
2017-09-22T23:46:28.000Z,51.20
2017-09-22T23:48:55.514Z,51.10
2017-09-22T23:51:23.913Z,51.10
2017-09-22T23:53:51.426Z,51.10
2017-09-22T23:56:18.919Z,51.30
2017-09-22T23:58:46.514Z,51.30
